createdAt,value
2022-07-26T00:00:16.950Z,17.57
2022-07-26T00:02:47.677Z,17.46
2022-07-26T00:05:19.067Z,17.50
2022-07-26T00:07:49.306Z,17.55
2022-07-26T00:10:20.737Z,17.49
2022-07-26T00:12:52.165Z,17.38
2022-07-26T00:15:22.150Z,17.25
2022-07-26T00:17:52.149Z,17.13
2022-07-26T00:20:22.188Z,17.07
2022-07-26T00:22:57.871Z,17.14
2022-07-26T00:25:29.767Z,17.12
2022-07-26T00:27:59.727Z,17.11
2022-07-26T00:30:30.161Z,17.14
2022-07-26T00:33:00.145Z,17.09
2022-07-26T00:35:30.106Z,17.15
2022-07-26T00:38:01.159Z,17.16
2022-07-26T00:40:32.669Z,17.11
2022-07-26T00:43:02.638Z,17.09
2022-07-26T00:45:32.737Z,17.08
2022-07-26T00:48:02.635Z,17.05
2022-07-26T00:53:07.009Z,16.96
2022-07-26T00:55:37.144Z,16.92
2022-07-26T00:58:07.307Z,16.93
2022-07-26T01:00:37.397Z,16.89
2022-07-26T01:03:07.417Z,16.80
2022-07-26T01:05:37.685Z,16.74
2022-07-26T01:08:09.448Z,16.66
2022-07-26T01:10:40.425Z,16.56
2022-07-26T01:13:11.292Z,16.56
2022-07-26T01:15:41.350Z,16.56
2022-07-26T01:18:11.334Z,16.59
2022-07-26T01:20:42.064Z,16.56
2022-07-26T01:23:13.529Z,16.52
2022-07-26T01:25:45.895Z,16.40
2022-07-26T01:28:20.176Z,16.36
2022-07-26T01:30:50.950Z,16.41
2022-07-26T01:33:21.300Z,16.40
2022-07-26T01:35:51.255Z,16.36
2022-07-26T01:38:22.709Z,16.29
2022-07-26T01:40:52.587Z,16.24
2022-07-26T01:43:22.617Z,16.26
2022-07-26T01:45:52.670Z,16.25
2022-07-26T01:48:22.611Z,16.27
2022-07-26T01:50:52.518Z,16.14
2022-07-26T01:53:24.157Z,16.06
2022-07-26T01:55:54.245Z,16.02
2022-07-26T01:58:24.342Z,16.01
2022-07-26T02:00:54.505Z,16.01
2022-07-26T02:03:24.368Z,15.92
2022-07-26T02:05:54.206Z,15.91
2022-07-26T02:08:25.733Z,15.93
2022-07-26T02:11:03.352Z,15.89
2022-07-26T02:13:35.997Z,15.77
2022-07-26T02:16:09.400Z,15.76
2022-07-26T02:18:40.912Z,15.75
2022-07-26T02:21:11.395Z,15.76
2022-07-26T02:23:43.048Z,15.72
2022-07-26T02:26:12.933Z,15.70
2022-07-26T02:28:42.795Z,15.72
2022-07-26T02:31:15.614Z,15.69
2022-07-26T02:33:45.695Z,15.69
2022-07-26T02:36:15.647Z,15.68
2022-07-26T02:38:47.091Z,15.55
2022-07-26T02:41:16.970Z,15.49
2022-07-26T02:43:47.031Z,15.49
2022-07-26T02:46:17.097Z,15.43
2022-07-26T02:48:47.121Z,15.46
2022-07-26T02:51:17.815Z,15.48
2022-07-26T02:53:49.291Z,15.42
2022-07-26T02:56:19.332Z,15.39
2022-07-26T02:58:49.289Z,15.32
2022-07-26T03:01:19.236Z,15.28
2022-07-26T03:03:51.043Z,15.28
2022-07-26T03:06:21.376Z,15.30
2022-07-26T03:08:52.911Z,15.31
2022-07-26T03:11:22.925Z,15.31
2022-07-26T03:13:52.928Z,15.28
2022-07-26T03:16:26.095Z,15.20
2022-07-26T03:18:59.774Z,15.22
2022-07-26T03:21:29.905Z,15.29
2022-07-26T03:24:01.341Z,15.29
2022-07-26T03:26:31.276Z,15.29
2022-07-26T03:29:01.247Z,15.32
2022-07-26T03:31:31.304Z,15.28
2022-07-26T03:34:03.306Z,15.27
2022-07-26T03:36:33.224Z,15.32
2022-07-26T03:39:04.686Z,15.35
2022-07-26T03:41:34.580Z,15.32
2022-07-26T03:44:04.916Z,15.36
2022-07-26T03:46:35.205Z,15.36
2022-07-26T03:49:05.366Z,15.35
2022-07-26T03:54:07.530Z,15.49
2022-07-26T03:56:36.185Z,15.52
2022-07-26T03:59:09.576Z,15.51
2022-07-26T04:01:42.729Z,15.53
2022-07-26T04:04:13.726Z,15.58
2022-07-26T04:06:44.106Z,15.65
2022-07-26T04:09:17.311Z,15.71
2022-07-26T04:11:48.969Z,15.76
2022-07-26T04:14:19.205Z,15.84
2022-07-26T04:16:49.307Z,15.93
2022-07-26T04:19:19.632Z,16.04
2022-07-26T04:21:49.627Z,16.15
2022-07-26T04:24:21.208Z,16.30
2022-07-26T04:26:55.662Z,16.51
2022-07-26T04:29:25.654Z,16.68
2022-07-26T04:31:55.611Z,16.92
2022-07-26T04:34:25.486Z,17.12
2022-07-26T04:36:55.503Z,17.29
2022-07-26T04:39:26.925Z,17.47
2022-07-26T04:41:56.889Z,17.68
2022-07-26T04:44:26.833Z,17.90
2022-07-26T04:46:56.817Z,18.12
2022-07-26T04:49:26.820Z,18.29
2022-07-26T04:51:59.402Z,18.50
2022-07-26T04:54:31.278Z,18.68
2022-07-26T04:57:01.224Z,18.88
2022-07-26T04:59:32.594Z,19.07
2022-07-26T05:02:03.037Z,19.25
2022-07-26T05:04:33.175Z,19.43
2022-07-26T05:07:03.956Z,19.62
2022-07-26T05:09:35.348Z,19.81
2022-07-26T05:12:05.999Z,19.98
2022-07-26T05:14:37.749Z,20.16
2022-07-26T05:17:10.565Z,20.34
2022-07-26T05:19:40.305Z,20.54
2022-07-26T05:22:10.429Z,20.79
2022-07-26T05:24:41.849Z,21.03
2022-07-26T05:27:12.029Z,21.29
2022-07-26T05:29:41.989Z,21.53
2022-07-26T05:32:12.025Z,21.80
2022-07-26T05:34:42.029Z,22.02
2022-07-26T05:37:12.827Z,22.26
2022-07-26T05:39:44.349Z,22.44
2022-07-26T05:42:14.347Z,22.56
2022-07-26T05:44:44.584Z,22.77
2022-07-26T05:47:14.538Z,22.93
2022-07-26T05:49:44.592Z,23.11
2022-07-26T05:52:14.488Z,23.32
2022-07-26T05:54:46.225Z,23.49
2022-07-26T05:57:16.190Z,23.64
2022-07-26T05:59:46.265Z,23.78
2022-07-26T06:02:16.263Z,23.92
2022-07-26T06:04:47.618Z,23.98
2022-07-26T06:07:18.009Z,23.99
2022-07-26T06:09:49.548Z,24.13
2022-07-26T06:12:19.496Z,24.29
2022-07-26T06:14:49.589Z,24.50
2022-07-26T06:17:19.622Z,24.58
2022-07-26T06:19:49.791Z,24.63
2022-07-26T06:22:19.786Z,24.63
2022-07-26T06:24:51.356Z,24.82
2022-07-26T06:27:21.408Z,24.97
2022-07-26T06:29:53.046Z,25.06
2022-07-26T06:32:23.052Z,25.26
2022-07-26T06:34:52.989Z,25.35
2022-07-26T06:37:22.930Z,25.32
2022-07-26T06:39:54.910Z,25.35
2022-07-26T06:42:24.952Z,25.46
2022-07-26T06:44:54.891Z,25.53
2022-07-26T06:47:24.746Z,25.67
2022-07-26T06:49:55.174Z,25.84
2022-07-26T06:54:07.416Z,25.66
2022-07-26T06:56:37.486Z,25.43
2022-07-26T06:59:09.483Z,25.50
2022-07-26T07:01:58.167Z,25.79
2022-07-26T07:04:29.955Z,26.03
2022-07-26T07:07:05.248Z,26.13
2022-07-26T07:09:39.072Z,26.41
2022-07-26T07:12:10.906Z,26.67
2022-07-26T07:14:41.216Z,26.71
2022-07-26T07:17:14.999Z,26.72
2022-07-26T07:19:48.469Z,26.64
2022-07-26T07:22:18.569Z,26.47
2022-07-26T07:24:49.953Z,26.56
2022-07-26T07:27:20.269Z,26.62
2022-07-26T07:29:50.844Z,26.47
2022-07-26T07:32:20.954Z,26.01
2022-07-26T07:34:51.546Z,26.16
2022-07-26T07:37:22.223Z,26.56
2022-07-26T07:39:53.505Z,26.82
2022-07-26T07:42:24.090Z,26.97
2022-07-26T07:44:54.156Z,27.21
2022-07-26T07:47:24.023Z,27.27
2022-07-26T07:49:53.971Z,27.25
2022-07-26T07:52:23.947Z,27.49
2022-07-26T07:55:11.621Z,27.66
2022-07-26T07:57:45.375Z,27.77
2022-07-26T08:00:19.608Z,27.96
2022-07-26T08:02:57.470Z,28.13
2022-07-26T08:05:27.528Z,28.36
2022-07-26T08:07:57.429Z,28.51
2022-07-26T08:10:29.784Z,28.61
2022-07-26T08:13:00.311Z,28.67
2022-07-26T08:15:31.625Z,28.40
2022-07-26T08:18:01.533Z,28.51
2022-07-26T08:20:34.574Z,28.71
2022-07-26T08:23:04.665Z,28.88
2022-07-26T08:25:36.091Z,28.91
2022-07-26T08:28:09.301Z,29.00
2022-07-26T08:30:49.847Z,29.24
2022-07-26T08:33:20.054Z,29.36
2022-07-26T08:35:50.102Z,29.47
2022-07-26T08:38:20.588Z,29.63
2022-07-26T08:40:51.867Z,29.68
2022-07-26T08:43:21.968Z,29.65
2022-07-26T08:45:52.610Z,29.70
2022-07-26T08:48:22.566Z,29.95
2022-07-26T08:50:52.676Z,29.98
2022-07-26T08:53:23.228Z,29.75
2022-07-26T08:56:07.624Z,29.58
2022-07-26T08:58:41.066Z,29.88
2022-07-26T09:01:13.774Z,30.21
2022-07-26T09:03:44.638Z,30.28
2022-07-26T09:06:20.564Z,30.26
2022-07-26T09:08:52.890Z,30.30
2022-07-26T09:11:33.659Z,30.51
2022-07-26T09:14:06.747Z,30.63
2022-07-26T09:16:39.855Z,30.52
2022-07-26T09:19:22.925Z,30.67
2022-07-26T09:21:55.896Z,30.81
2022-07-26T09:24:38.869Z,30.81
2022-07-26T09:27:13.370Z,30.86
2022-07-26T09:29:49.089Z,30.90
2022-07-26T09:32:21.847Z,30.86
2022-07-26T09:34:58.905Z,31.00
2022-07-26T09:37:40.165Z,31.05
2022-07-26T09:40:13.478Z,30.80
2022-07-26T09:42:58.704Z,29.84
2022-07-26T09:45:30.337Z,29.71
2022-07-26T09:48:00.433Z,30.25
2022-07-26T09:54:07.070Z,30.85
2022-07-26T09:56:49.269Z,31.01
2022-07-26T09:59:21.666Z,31.12
2022-07-26T10:01:53.452Z,31.13
2022-07-26T10:04:24.251Z,31.30
2022-07-26T10:06:54.306Z,31.41
2022-07-26T10:09:25.961Z,31.50
2022-07-26T10:12:03.684Z,31.63
2022-07-26T10:14:46.438Z,31.67
2022-07-26T10:17:49.309Z,31.81
2022-07-26T10:20:47.171Z,31.52
2022-07-26T10:23:46.066Z,31.45
2022-07-26T10:26:45.833Z,31.59
2022-07-26T10:29:31.538Z,31.55
2022-07-26T10:32:21.972Z,31.75
2022-07-26T10:34:52.024Z,31.67
2022-07-26T10:37:30.068Z,31.62
2022-07-26T10:40:25.840Z,31.38
2022-07-26T10:43:39.117Z,31.64
2022-07-26T10:46:29.540Z,31.75
2022-07-26T10:49:04.121Z,31.33
2022-07-26T10:51:38.353Z,31.20
2022-07-26T10:54:12.183Z,30.96
2022-07-26T10:56:43.128Z,30.85
2022-07-26T10:59:20.318Z,31.12
2022-07-26T11:02:03.062Z,31.58
2022-07-26T11:04:33.214Z,31.92
2022-07-26T11:07:04.787Z,32.13
2022-07-26T11:09:37.166Z,32.00
2022-07-26T11:12:19.024Z,31.92
2022-07-26T11:14:50.715Z,31.95
2022-07-26T11:17:27.566Z,31.76
2022-07-26T11:19:58.729Z,31.89
2022-07-26T11:22:34.672Z,31.92
2022-07-26T11:25:06.364Z,32.00
2022-07-26T11:27:36.408Z,31.82
2022-07-26T11:30:10.114Z,31.94
2022-07-26T11:32:40.035Z,32.09
2022-07-26T11:35:10.990Z,32.13
2022-07-26T11:37:40.990Z,31.83
2022-07-26T11:40:12.739Z,31.58
2022-07-26T11:42:42.853Z,31.44
2022-07-26T11:45:15.340Z,31.31
2022-07-26T11:47:45.310Z,31.23
2022-07-26T11:50:21.916Z,31.39
2022-07-26T11:52:53.586Z,31.51
2022-07-26T11:55:30.612Z,31.61
2022-07-26T11:58:08.127Z,32.02
2022-07-26T12:00:40.209Z,32.32
2022-07-26T12:03:10.108Z,32.06
2022-07-26T12:05:41.886Z,31.88
2022-07-26T12:08:12.007Z,32.07
2022-07-26T12:10:42.225Z,32.01
2022-07-26T12:13:15.209Z,31.62
2022-07-26T12:15:52.114Z,31.31
2022-07-26T12:18:27.144Z,31.21
2022-07-26T12:21:05.474Z,31.29
2022-07-26T12:23:48.979Z,31.55
2022-07-26T12:26:27.374Z,31.68
2022-07-26T12:28:58.806Z,31.96
2022-07-26T12:31:31.661Z,32.30
2022-07-26T12:34:02.286Z,32.54
2022-07-26T12:36:36.105Z,32.61
2022-07-26T12:39:07.009Z,32.30
2022-07-26T12:41:39.431Z,32.01
2022-07-26T12:44:12.900Z,31.91
2022-07-26T12:46:45.306Z,31.96
2022-07-26T12:49:15.699Z,32.17
2022-07-26T12:54:07.842Z,32.56
2022-07-26T12:56:38.401Z,32.72
2022-07-26T12:59:11.275Z,32.75
2022-07-26T13:01:47.867Z,32.72
2022-07-26T13:04:17.858Z,32.89
2022-07-26T13:06:47.930Z,33.03
2022-07-26T13:09:19.350Z,32.76
2022-07-26T13:11:49.026Z,32.53
2022-07-26T13:14:19.027Z,32.69
2022-07-26T13:16:49.054Z,33.05
2022-07-26T13:19:19.134Z,33.40
2022-07-26T13:21:52.785Z,33.36
2022-07-26T13:24:24.774Z,33.36
2022-07-26T13:26:55.946Z,33.11
2022-07-26T13:29:26.077Z,33.09
2022-07-26T13:31:57.270Z,33.02
2022-07-26T13:34:30.495Z,33.20
2022-07-26T13:37:07.472Z,33.31
2022-07-26T13:39:40.136Z,33.08
2022-07-26T13:42:11.608Z,32.88
2022-07-26T13:44:41.689Z,33.02
2022-07-26T13:47:11.673Z,33.23
2022-07-26T13:49:41.841Z,33.34
2022-07-26T13:52:15.795Z,33.26
2022-07-26T13:54:48.408Z,33.18
2022-07-26T13:57:18.375Z,32.81
2022-07-26T13:59:48.324Z,32.44
2022-07-26T14:02:18.567Z,32.58
2022-07-26T14:04:48.884Z,32.66
2022-07-26T14:07:19.009Z,32.68
2022-07-26T14:09:50.571Z,32.72
2022-07-26T14:12:20.654Z,32.69
2022-07-26T14:14:51.748Z,32.80
2022-07-26T14:17:21.782Z,32.73
2022-07-26T14:19:52.074Z,32.52
2022-07-26T14:22:22.047Z,32.34
2022-07-26T14:24:53.488Z,32.25
2022-07-26T14:27:23.372Z,32.29
2022-07-26T14:29:53.331Z,32.12
2022-07-26T14:32:23.448Z,31.77
2022-07-26T14:34:54.220Z,31.61
2022-07-26T14:37:43.685Z,31.51
2022-07-26T14:40:18.322Z,31.26
2022-07-26T14:42:49.101Z,31.21
2022-07-26T14:45:19.693Z,31.19
2022-07-26T14:47:49.696Z,31.14
2022-07-26T14:50:19.790Z,31.05
2022-07-26T14:52:50.896Z,30.85
2022-07-26T14:55:25.342Z,30.69
2022-07-26T14:57:55.709Z,30.71
2022-07-26T15:00:25.801Z,30.54
2022-07-26T15:02:55.857Z,30.29
2022-07-26T15:05:28.108Z,30.28
2022-07-26T15:08:00.562Z,30.25
2022-07-26T15:10:35.790Z,30.11
2022-07-26T15:13:09.559Z,29.91
2022-07-26T15:15:39.562Z,29.80
2022-07-26T15:18:09.691Z,29.67
2022-07-26T15:20:42.169Z,29.55
2022-07-26T15:23:12.690Z,29.46
2022-07-26T15:25:44.246Z,29.42
2022-07-26T15:28:13.876Z,29.32
2022-07-26T15:30:43.847Z,29.29
2022-07-26T15:33:14.859Z,29.31
2022-07-26T15:35:44.850Z,29.29
2022-07-26T15:38:14.872Z,29.20
2022-07-26T15:40:46.392Z,29.04
2022-07-26T15:43:23.836Z,28.90
2022-07-26T15:46:13.583Z,28.73
2022-07-26T15:48:45.923Z,28.54
2022-07-26T15:54:13.700Z,28.25
2022-07-26T15:56:44.255Z,28.08
2022-07-26T15:59:14.712Z,27.96
2022-07-26T16:01:44.941Z,27.84
2022-07-26T16:04:15.354Z,27.81
2022-07-26T16:06:45.572Z,27.79
2022-07-26T16:09:24.090Z,27.72
2022-07-26T16:11:54.172Z,27.64
2022-07-26T16:14:24.332Z,27.46
2022-07-26T16:16:54.269Z,27.39
2022-07-26T16:19:24.530Z,27.33
2022-07-26T16:21:54.470Z,27.32
2022-07-26T16:24:26.537Z,27.20
2022-07-26T16:26:56.474Z,27.09
2022-07-26T16:29:26.567Z,27.02
2022-07-26T16:31:56.606Z,26.93
2022-07-26T16:34:26.968Z,26.87
2022-07-26T16:36:56.945Z,26.81
2022-07-26T16:39:28.521Z,26.68
2022-07-26T16:42:02.035Z,26.57
2022-07-26T16:44:37.395Z,26.49
2022-07-26T16:47:07.533Z,26.40
2022-07-26T16:49:37.511Z,26.36
2022-07-26T16:52:09.571Z,26.24
2022-07-26T16:54:43.352Z,26.17
2022-07-26T16:57:13.347Z,26.06
2022-07-26T16:59:43.330Z,25.98
2022-07-26T17:02:13.440Z,25.87
2022-07-26T17:04:43.371Z,25.77
2022-07-26T17:07:28.595Z,25.62
2022-07-26T17:10:00.533Z,25.49
2022-07-26T17:12:30.533Z,25.40
2022-07-26T17:15:00.991Z,25.32
2022-07-26T17:17:31.287Z,25.14
2022-07-26T17:20:01.213Z,24.99
2022-07-26T17:22:31.268Z,24.99
2022-07-26T17:25:03.235Z,24.96
2022-07-26T17:27:33.191Z,24.82
2022-07-26T17:30:06.478Z,24.73
2022-07-26T17:32:38.400Z,24.59
2022-07-26T17:35:10.486Z,24.42
2022-07-26T17:37:41.895Z,24.24
2022-07-26T17:40:16.505Z,24.06
2022-07-26T17:42:46.631Z,23.94
2022-07-26T17:45:16.708Z,23.78
2022-07-26T17:47:47.211Z,23.67
2022-07-26T17:53:07.119Z,23.47
2022-07-26T17:55:38.699Z,23.34
2022-07-26T17:58:08.770Z,23.20
2022-07-26T18:00:38.976Z,23.07
2022-07-26T18:03:09.130Z,22.94
2022-07-26T18:05:41.359Z,22.84
2022-07-26T18:08:11.735Z,22.73
2022-07-26T18:10:46.337Z,22.63
2022-07-26T18:13:18.931Z,22.53
2022-07-26T18:15:50.224Z,22.46
2022-07-26T18:18:20.517Z,22.35
2022-07-26T18:20:50.713Z,22.23
2022-07-26T18:23:20.807Z,22.17
2022-07-26T18:25:53.930Z,22.11
2022-07-26T18:28:23.812Z,22.08
2022-07-26T18:30:53.861Z,22.00
2022-07-26T18:33:23.952Z,21.90
2022-07-26T18:35:57.239Z,21.77
2022-07-26T18:38:27.138Z,21.63
2022-07-26T18:40:58.791Z,21.44
2022-07-26T18:43:28.783Z,21.30
2022-07-26T18:46:00.818Z,21.23
2022-07-26T18:48:34.633Z,21.18
2022-07-26T18:54:06.622Z,21.04
2022-07-26T18:56:36.496Z,20.94
2022-07-26T18:59:07.355Z,20.82
2022-07-26T19:01:39.107Z,20.78
2022-07-26T19:04:09.140Z,20.67
2022-07-26T19:06:40.308Z,20.61
2022-07-26T19:09:12.204Z,20.57
2022-07-26T19:11:45.951Z,20.53
2022-07-26T19:14:16.524Z,20.46
2022-07-26T19:16:46.534Z,20.42
2022-07-26T19:19:16.776Z,20.34
2022-07-26T19:21:48.730Z,20.32
2022-07-26T19:24:20.167Z,20.24
2022-07-26T19:26:50.209Z,20.20
2022-07-26T19:29:20.189Z,20.14
2022-07-26T19:31:50.137Z,20.10
2022-07-26T19:34:20.050Z,20.00
2022-07-26T19:36:51.368Z,19.96
2022-07-26T19:39:23.029Z,19.91
2022-07-26T19:41:53.497Z,19.83
2022-07-26T19:44:23.595Z,19.77
2022-07-26T19:46:57.543Z,19.68
2022-07-26T19:49:28.110Z,19.63
2022-07-26T19:51:58.347Z,19.57
2022-07-26T19:54:29.992Z,19.48
2022-07-26T19:56:59.884Z,19.33
2022-07-26T19:59:29.875Z,19.21
2022-07-26T20:01:59.925Z,19.16
2022-07-26T20:04:30.070Z,19.16
2022-07-26T20:07:00.108Z,19.19
2022-07-26T20:09:31.792Z,19.15
2022-07-26T20:12:02.251Z,19.08
2022-07-26T20:14:32.329Z,19.05
2022-07-26T20:17:02.607Z,19.01
2022-07-26T20:19:32.733Z,18.92
2022-07-26T20:22:02.951Z,18.84
2022-07-26T20:24:34.460Z,18.84
2022-07-26T20:27:04.449Z,18.79
2022-07-26T20:29:34.578Z,18.68
2022-07-26T20:32:04.806Z,18.61
2022-07-26T20:34:35.355Z,18.62
2022-07-26T20:37:05.389Z,18.54
2022-07-26T20:39:36.806Z,18.49
2022-07-26T20:42:07.411Z,18.50
2022-07-26T20:44:42.985Z,18.52
2022-07-26T20:47:13.065Z,18.47
2022-07-26T20:49:43.007Z,18.47
2022-07-26T20:52:13.389Z,18.38
2022-07-26T20:54:44.850Z,18.32
2022-07-26T20:57:14.766Z,18.25
2022-07-26T20:59:44.981Z,18.16
2022-07-26T21:02:14.920Z,18.14
2022-07-26T21:04:45.914Z,18.17
2022-07-26T21:07:16.531Z,18.16
2022-07-26T21:09:47.901Z,18.16
2022-07-26T21:12:17.804Z,18.10
2022-07-26T21:14:47.706Z,18.06
2022-07-26T21:17:18.195Z,18.00
2022-07-26T21:19:48.252Z,17.94
2022-07-26T21:22:18.208Z,17.93
2022-07-26T21:24:49.745Z,17.92
2022-07-26T21:27:19.572Z,17.93
2022-07-26T21:29:49.444Z,17.90
2022-07-26T21:32:19.334Z,17.91
2022-07-26T21:34:49.308Z,17.86
2022-07-26T21:37:19.487Z,17.76
2022-07-26T21:39:50.946Z,17.68
2022-07-26T21:42:20.893Z,17.68
2022-07-26T21:44:50.869Z,17.68
2022-07-26T21:47:20.760Z,17.67
2022-07-26T21:49:50.667Z,17.62
2022-07-26T21:54:06.308Z,17.59
2022-07-26T21:56:36.268Z,17.56
2022-07-26T21:59:06.751Z,17.48
2022-07-26T22:01:36.852Z,17.44
2022-07-26T22:04:07.169Z,17.38
2022-07-26T22:06:37.290Z,17.41
2022-07-26T22:09:09.167Z,17.41
2022-07-26T22:11:39.065Z,17.37
2022-07-26T22:14:09.669Z,17.38
2022-07-26T22:16:40.401Z,17.35
2022-07-26T22:19:10.697Z,17.29
2022-07-26T22:21:41.169Z,17.25
2022-07-26T22:24:12.598Z,17.24
2022-07-26T22:26:42.828Z,17.19
2022-07-26T22:29:13.360Z,17.11
2022-07-26T22:31:43.524Z,17.11
2022-07-26T22:34:13.524Z,17.12
2022-07-26T22:36:45.547Z,17.04
2022-07-26T22:39:16.732Z,17.01
2022-07-26T22:42:13.860Z,17.02
2022-07-26T22:44:36.579Z,17.02
2022-07-26T22:47:06.688Z,16.99
2022-07-26T22:49:36.702Z,16.91
2022-07-26T22:52:07.091Z,16.88
2022-07-26T22:54:38.507Z,16.89
2022-07-26T22:57:08.529Z,16.86
2022-07-26T22:59:38.669Z,16.82
2022-07-26T23:02:08.880Z,16.82
2022-07-26T23:04:38.926Z,16.80
2022-07-26T23:07:09.649Z,16.76
2022-07-26T23:09:41.721Z,16.64
2022-07-26T23:12:12.436Z,16.64
2022-07-26T23:14:42.485Z,16.54
2022-07-26T23:17:12.294Z,16.55
2022-07-26T23:19:42.544Z,16.46
2022-07-26T23:22:12.454Z,16.43
2022-07-26T23:24:45.766Z,16.35
2022-07-26T23:27:19.949Z,16.29
2022-07-26T23:29:51.346Z,16.31
2022-07-26T23:32:21.414Z,16.34
2022-07-26T23:34:51.415Z,16.37
2022-07-26T23:37:21.967Z,16.37
2022-07-26T23:39:53.269Z,16.29
2022-07-26T23:42:23.310Z,16.37
2022-07-26T23:44:53.249Z,16.39
2022-07-26T23:47:23.327Z,16.42
2022-07-26T23:49:53.330Z,16.50
2022-07-26T23:52:25.581Z,16.55
2022-07-26T23:54:57.250Z,16.52
2022-07-26T23:57:27.246Z,16.43
2022-07-26T23:59:57.174Z,16.34
